sensor_id;sensor_type;location;lat;lon;timestamp;pressure;altitude;pressure_sealevel;temperature;humidity
72110;BME280;59983;52.010;5.420;2023-12-20T00:01:05;101486.94;;;20.38;63.29
72110;BME280;59983;52.010;5.420;2023-12-20T00:03:31;101490.88;;;20.37;63.20
72110;BME280;59983;52.010;5.420;2023-12-20T00:06:08;101492.06;;;20.36;62.97
72110;BME280;59983;52.010;5.420;2023-12-20T00:08:34;101479.88;;;20.33;63.00
72110;BME280;59983;52.010;5.420;2023-12-20T00:11:01;101483.81;;;20.32;63.34
72110;BME280;59983;52.010;5.420;2023-12-20T00:13:27;101486.16;;;20.30;63.25
72110;BME280;59983;52.010;5.420;2023-12-20T00:15:54;101473.19;;;20.27;63.37
72110;BME280;59983;52.010;5.420;2023-12-20T00:18:21;101475.16;;;20.27;63.10
72110;BME280;59983;52.010;5.420;2023-12-20T00:20:47;101480.28;;;20.25;63.32
72110;BME280;59983;52.010;5.420;2023-12-20T00:23:14;101472.03;;;20.25;63.19
72110;BME280;59983;52.010;5.420;2023-12-20T00:25:40;101476.34;;;20.22;63.37
72110;BME280;59983;52.010;5.420;2023-12-20T00:28:07;101470.44;;;20.20;63.38
72110;BME280;59983;52.010;5.420;2023-12-20T00:30:33;101468.88;;;20.19;63.07
72110;BME280;59983;52.010;5.420;2023-12-20T00:33:00;101464.94;;;20.17;63.37
72110;BME280;59983;52.010;5.420;2023-12-20T00:35:27;101462.19;;;20.17;63.23
72110;BME280;59983;52.010;5.420;2023-12-20T00:37:53;101466.50;;;20.14;63.20
72110;BME280;59983;52.010;5.420;2023-12-20T00:40:20;101477.53;;;20.14;63.24
72110;BME280;59983;52.010;5.420;2023-12-20T00:42:47;101478.69;;;20.13;63.12
72110;BME280;59983;52.010;5.420;2023-12-20T00:45:14;101481.06;;;20.11;63.27
72110;BME280;59983;52.010;5.420;2023-12-20T00:47:41;101477.16;;;20.08;63.18
72110;BME280;59983;52.010;5.420;2023-12-20T00:50:08;101461.03;;;20.07;63.41
72110;BME280;59983;52.010;5.420;2023-12-20T00:52:36;101469.28;;;20.07;63.25
72110;BME280;59983;52.010;5.420;2023-12-20T00:55:03;101466.94;;;20.05;63.30
72110;BME280;59983;52.010;5.420;2023-12-20T00:57:30;101475.56;;;20.04;63.36
72110;BME280;59983;52.010;5.420;2023-12-20T00:59:57;101472.41;;;20.02;63.42
72110;BME280;59983;52.010;5.420;2023-12-20T01:02:24;101474.00;;;20.03;63.41
72110;BME280;59983;52.010;5.420;2023-12-20T01:04:51;101473.59;;;20.01;63.40
72110;BME280;59983;52.010;5.420;2023-12-20T01:07:18;101474.00;;;19.99;63.27
72110;BME280;59983;52.010;5.420;2023-12-20T01:09:45;101470.88;;;19.97;63.50
72110;BME280;59983;52.010;5.420;2023-12-20T01:12:11;101471.66;;;19.98;63.36
72110;BME280;59983;52.010;5.420;2023-12-20T01:14:38;101464.16;;;19.95;63.30
72110;BME280;59983;52.010;5.420;2023-12-20T01:17:06;101461.81;;;19.93;63.40
72110;BME280;59983;52.010;5.420;2023-12-20T01:19:32;101468.50;;;19.92;63.58
72110;BME280;59983;52.010;5.420;2023-12-20T01:21:59;101470.84;;;19.90;63.36
72110;BME280;59983;52.010;5.420;2023-12-20T01:24:25;101459.84;;;19.90;63.29
72110;BME280;59983;52.010;5.420;2023-12-20T01:26:52;101459.47;;;19.88;63.45
72110;BME280;59983;52.010;5.420;2023-12-20T01:29:19;101462.22;;;19.88;63.39
72110;BME280;59983;52.010;5.420;2023-12-20T01:31:45;101459.81;;;19.87;63.42
72110;BME280;59983;52.010;5.420;2023-12-20T01:34:12;101462.59;;;19.87;63.70
72110;BME280;59983;52.010;5.420;2023-12-20T01:36:39;101465.34;;;19.83;63.46
72110;BME280;59983;52.010;5.420;2023-12-20T01:39:05;101474.38;;;19.84;63.56
72110;BME280;59983;52.010;5.420;2023-12-20T01:41:49;101470.47;;;19.81;63.60
72110;BME280;59983;52.010;5.420;2023-12-20T01:44:16;101462.59;;;19.79;63.43
72110;BME280;59983;52.010;5.420;2023-12-20T01:46:43;101472.84;;;19.79;63.69
72110;BME280;59983;52.010;5.420;2023-12-20T01:49:09;101465.72;;;19.78;63.70
72110;BME280;59983;52.010;5.420;2023-12-20T01:51:36;101464.16;;;19.77;63.50
72110;BME280;59983;52.010;5.420;2023-12-20T01:54:03;101462.97;;;19.74;63.51
72110;BME280;59983;52.010;5.420;2023-12-20T01:56:31;101477.53;;;19.75;63.63
72110;BME280;59983;52.010;5.420;2023-12-20T01:58:58;101473.22;;;19.74;63.50
72110;BME280;59983;52.010;5.420;2023-12-20T02:01:25;101468.88;;;19.73;63.62
72110;BME280;59983;52.010;5.420;2023-12-20T02:03:52;101463.78;;;19.71;63.58
72110;BME280;59983;52.010;5.420;2023-12-20T02:06:21;101460.59;;;19.69;63.52
72110;BME280;59983;52.010;5.420;2023-12-20T02:08:50;101470.84;;;19.69;63.64
72110;BME280;59983;52.010;5.420;2023-12-20T02:11:16;101473.19;;;19.67;63.64
72110;BME280;59983;52.010;5.420;2023-12-20T02:13:43;101464.94;;;19.67;63.56
72110;BME280;59983;52.010;5.420;2023-12-20T02:16:10;101461.78;;;19.65;63.52
72110;BME280;59983;52.010;5.420;2023-12-20T02:18:36;101462.19;;;19.63;63.60
72110;BME280;59983;52.010;5.420;2023-12-20T02:21:05;101458.66;;;19.63;63.71
72110;BME280;59983;52.010;5.420;2023-12-20T02:23:32;101457.88;;;19.62;63.55
72110;BME280;59983;52.010;5.420;2023-12-20T02:25:58;101459.03;;;19.61;63.62
72110;BME280;59983;52.010;5.420;2023-12-20T02:28:25;101455.88;;;19.59;63.71
72110;BME280;59983;52.010;5.420;2023-12-20T02:30:51;101449.59;;;19.59;63.60
72110;BME280;59983;52.010;5.420;2023-12-20T02:33:18;101452.34;;;19.59;63.54
72110;BME280;59983;52.010;5.420;2023-12-20T02:35:45;101451.94;;;19.57;63.69
72110;BME280;59983;52.010;5.420;2023-12-20T02:38:11;101454.72;;;19.57;63.68
72110;BME280;59983;52.010;5.420;2023-12-20T02:40:38;101451.53;;;19.55;63.61
72110;BME280;59983;52.010;5.420;2023-12-20T02:43:04;101446.81;;;19.55;63.53
72110;BME280;59983;52.010;5.420;2023-12-20T02:45:31;101447.22;;;19.53;63.63
72110;BME280;59983;52.010;5.420;2023-12-20T02:47:57;101440.50;;;19.51;63.65
72110;BME280;59983;52.010;5.420;2023-12-20T02:50:24;101441.28;;;19.51;63.64
72110;BME280;59983;52.010;5.420;2023-12-20T02:52:51;101441.69;;;19.50;63.54
72110;BME280;59983;52.010;5.420;2023-12-20T02:55:18;101437.38;;;19.49;63.57
72110;BME280;59983;52.010;5.420;2023-12-20T02:57:44;101435.78;;;19.48;63.74
72110;BME280;59983;52.010;5.420;2023-12-20T03:00:11;101432.25;;;19.47;63.83
72110;BME280;59983;52.010;5.420;2023-12-20T03:02:38;101431.09;;;19.45;63.72
72110;BME280;59983;52.010;5.420;2023-12-20T03:05:05;101419.28;;;19.44;63.70
72110;BME280;59983;52.010;5.420;2023-12-20T03:07:32;101422.84;;;19.45;63.80
72110;BME280;59983;52.010;5.420;2023-12-20T03:09:58;101430.28;;;19.44;63.71
72110;BME280;59983;52.010;5.420;2023-12-20T03:12:44;101419.66;;;19.43;63.78
72110;BME280;59983;52.010;5.420;2023-12-20T03:15:11;101423.59;;;19.42;63.69
72110;BME280;59983;52.010;5.420;2023-12-20T03:17:37;101425.16;;;19.39;63.82
72110;BME280;59983;52.010;5.420;2023-12-20T03:20:04;101424.78;;;19.41;63.77
72110;BME280;59983;52.010;5.420;2023-12-20T03:22:31;101424.00;;;19.40;63.74
72110;BME280;59983;52.010;5.420;2023-12-20T03:24:58;101422.41;;;19.39;63.80
72110;BME280;59983;52.010;5.420;2023-12-20T03:27:25;101410.25;;;19.37;63.75
72110;BME280;59983;52.010;5.420;2023-12-20T03:29:51;101409.44;;;19.36;63.75
72110;BME280;59983;52.010;5.420;2023-12-20T03:32:18;101407.88;;;19.35;63.75
72110;BME280;59983;52.010;5.420;2023-12-20T03:34:44;101407.88;;;19.35;64.08
72110;BME280;59983;52.010;5.420;2023-12-20T03:37:11;101394.91;;;19.32;63.78
72110;BME280;59983;52.010;5.420;2023-12-20T03:39:37;101398.03;;;19.31;64.03
72110;BME280;59983;52.010;5.420;2023-12-20T03:42:04;101400.38;;;19.32;63.76
72110;BME280;59983;52.010;5.420;2023-12-20T03:44:31;101406.28;;;19.31;63.91
72110;BME280;59983;52.010;5.420;2023-12-20T03:46:57;101410.63;;;19.28;63.85
72110;BME280;59983;52.010;5.420;2023-12-20T03:49:24;101407.09;;;19.28;63.90
72110;BME280;59983;52.010;5.420;2023-12-20T03:51:50;101416.91;;;19.29;64.09
72110;BME280;59983;52.010;5.420;2023-12-20T03:54:17;101431.44;;;19.29;63.90
72110;BME280;59983;52.010;5.420;2023-12-20T03:56:43;101422.00;;;19.27;64.09
72110;BME280;59983;52.010;5.420;2023-12-20T03:59:10;101411.78;;;19.27;64.08
72110;BME280;59983;52.010;5.420;2023-12-20T04:01:37;101409.41;;;19.25;64.03
72110;BME280;59983;52.010;5.420;2023-12-20T04:04:03;101406.66;;;19.25;64.11
72110;BME280;59983;52.010;5.420;2023-12-20T04:06:30;101409.03;;;19.23;64.06
72110;BME280;59983;52.010;5.420;2023-12-20T04:08:57;101402.75;;;19.23;64.08
72110;BME280;59983;52.010;5.420;2023-12-20T04:11:23;101406.66;;;19.22;64.02
72110;BME280;59983;52.010;5.420;2023-12-20T04:13:50;101407.44;;;19.22;63.97
72110;BME280;59983;52.010;5.420;2023-12-20T04:16:16;101403.91;;;19.18;64.01
72110;BME280;59983;52.010;5.420;2023-12-20T04:18:43;101400.00;;;19.19;64.15
72110;BME280;59983;52.010;5.420;2023-12-20T04:21:10;101401.19;;;19.18;64.05
72110;BME280;59983;52.010;5.420;2023-12-20T04:23:36;101397.63;;;19.18;64.09
72110;BME280;59983;52.010;5.420;2023-12-20T04:26:03;101400.38;;;19.18;64.01
72110;BME280;59983;52.010;5.420;2023-12-20T04:28:29;101390.94;;;19.15;64.02
72110;BME280;59983;52.010;5.420;2023-12-20T04:30:56;101392.91;;;19.15;64.02
72110;BME280;59983;52.010;5.420;2023-12-20T04:33:23;101398.41;;;19.15;64.15
72110;BME280;59983;52.010;5.420;2023-12-20T04:35:51;101392.09;;;19.14;64.11
72110;BME280;59983;52.010;5.420;2023-12-20T04:38:17;101399.56;;;19.14;64.10
72110;BME280;59983;52.010;5.420;2023-12-20T04:40:44;101411.75;;;19.13;64.05
72110;BME280;59983;52.010;5.420;2023-12-20T04:43:11;101399.19;;;19.12;64.10
72110;BME280;59983;52.010;5.420;2023-12-20T04:45:37;101408.22;;;19.12;64.06
72110;BME280;59983;52.010;5.420;2023-12-20T04:48:04;101391.34;;;19.10;64.21
72110;BME280;59983;52.010;5.420;2023-12-20T04:50:31;101399.59;;;19.10;63.96
72110;BME280;59983;52.010;5.420;2023-12-20T04:52:58;101387.41;;;19.11;64.18
72110;BME280;59983;52.010;5.420;2023-12-20T04:55:24;101387.00;;;19.09;64.05
72110;BME280;59983;52.010;5.420;2023-12-20T04:57:51;101388.19;;;19.08;64.12
72110;BME280;59983;52.010;5.420;2023-12-20T05:00:17;101384.22;;;19.06;64.18
72110;BME280;59983;52.010;5.420;2023-12-20T05:02:44;101375.97;;;19.06;64.12
72110;BME280;59983;52.010;5.420;2023-12-20T05:05:11;101380.69;;;19.05;64.22
72110;BME280;59983;52.010;5.420;2023-12-20T05:07:37;101382.28;;;19.06;64.22
72110;BME280;59983;52.010;5.420;2023-12-20T05:10:05;101373.63;;;19.04;64.13
72110;BME280;59983;52.010;5.420;2023-12-20T05:12:31;101381.09;;;19.04;64.06
72110;BME280;59983;52.010;5.420;2023-12-20T05:14:58;101390.53;;;19.03;64.17
72110;BME280;59983;52.010;5.420;2023-12-20T05:17:25;101390.53;;;19.03;64.09
72110;BME280;59983;52.010;5.420;2023-12-20T05:19:52;101388.16;;;19.01;64.28
72110;BME280;59983;52.010;5.420;2023-12-20T05:22:19;101396.03;;;19.03;64.30
72110;BME280;59983;52.010;5.420;2023-12-20T05:24:46;101381.47;;;18.99;64.18
72110;BME280;59983;52.010;5.420;2023-12-20T05:27:13;101391.69;;;18.98;64.26
72110;BME280;59983;52.010;5.420;2023-12-20T05:29:39;101390.50;;;18.99;64.12
72110;BME280;59983;52.010;5.420;2023-12-20T05:32:06;101382.63;;;18.98;64.03
72110;BME280;59983;52.010;5.420;2023-12-20T05:34:32;101391.69;;;18.98;64.25
72110;BME280;59983;52.010;5.420;2023-12-20T05:36:59;101382.25;;;18.95;64.20
72110;BME280;59983;52.010;5.420;2023-12-20T05:39:28;101381.47;;;18.95;64.20
72110;BME280;59983;52.010;5.420;2023-12-20T05:41:54;101388.94;;;18.94;64.35
72110;BME280;59983;52.010;5.420;2023-12-20T05:44:21;101389.31;;;18.93;64.24
72110;BME280;59983;52.010;5.420;2023-12-20T05:46:47;101397.19;;;18.94;64.24
72110;BME280;59983;52.010;5.420;2023-12-20T05:49:14;101390.09;;;18.93;64.24
72110;BME280;59983;52.010;5.420;2023-12-20T05:51:41;101381.84;;;18.93;64.23
72110;BME280;59983;52.010;5.420;2023-12-20T05:54:08;101381.47;;;18.91;64.34
72110;BME280;59983;52.010;5.420;2023-12-20T05:56:35;101390.06;;;18.90;64.26
72110;BME280;59983;52.010;5.420;2023-12-20T05:59:01;101388.13;;;18.90;64.33
72110;BME280;59983;52.010;5.420;2023-12-20T06:01:28;101386.19;;;18.91;64.33
72110;BME280;59983;52.010;5.420;2023-12-20T06:03:55;101393.63;;;18.90;64.25
72110;BME280;59983;52.010;5.420;2023-12-20T06:06:21;101388.50;;;18.89;64.24
72110;BME280;59983;52.010;5.420;2023-12-20T06:08:48;101384.19;;;18.88;64.21
72110;BME280;59983;52.010;5.420;2023-12-20T06:11:14;101392.81;;;18.86;64.31
72110;BME280;59983;52.010;5.420;2023-12-20T06:13:41;101393.63;;;18.87;64.25
72110;BME280;59983;52.010;5.420;2023-12-20T06:16:08;101390.06;;;18.86;64.24
72110;BME280;59983;52.010;5.420;2023-12-20T06:18:34;101390.88;;;18.87;64.40
72110;BME280;59983;52.010;5.420;2023-12-20T06:21:03;101397.53;;;18.86;64.33
72110;BME280;59983;52.010;5.420;2023-12-20T06:23:30;101383.00;;;18.85;64.15
72110;BME280;59983;52.010;5.420;2023-12-20T06:25:57;101383.41;;;18.84;64.08
72110;BME280;59983;52.010;5.420;2023-12-20T06:28:23;101394.78;;;18.82;64.37
72110;BME280;59983;52.010;5.420;2023-12-20T06:30:50;101399.91;;;18.84;64.40
72110;BME280;59983;52.010;5.420;2023-12-20T06:33:18;101395.56;;;18.83;64.26
72110;BME280;59983;52.010;5.420;2023-12-20T06:35:46;101396.75;;;18.82;64.25
72110;BME280;59983;52.010;5.420;2023-12-20T06:38:12;101389.28;;;18.82;64.25
72110;BME280;59983;52.010;5.420;2023-12-20T06:40:39;101381.41;;;18.81;64.23
72110;BME280;59983;52.010;5.420;2023-12-20T06:43:06;101384.56;;;18.79;64.26
72110;BME280;59983;52.010;5.420;2023-12-20T06:45:46;101384.56;;;18.79;64.22
72110;BME280;59983;52.010;5.420;2023-12-20T06:48:13;101381.81;;;18.79;64.30
72110;BME280;59983;52.010;5.420;2023-12-20T06:50:40;101373.94;;;18.78;64.26
72110;BME280;59983;52.010;5.420;2023-12-20T06:53:07;101373.94;;;18.78;64.32
72110;BME280;59983;52.010;5.420;2023-12-20T06:55:35;101372.38;;;18.77;64.35
72110;BME280;59983;52.010;5.420;2023-12-20T06:58:03;101369.25;;;18.75;64.24
72110;BME280;59983;52.010;5.420;2023-12-20T07:00:30;101370.03;;;18.75;64.35
72110;BME280;59983;52.010;5.420;2023-12-20T07:02:57;101364.53;;;18.75;64.33
72110;BME280;59983;52.010;5.420;2023-12-20T07:05:23;101363.75;;;18.75;64.30
72110;BME280;59983;52.010;5.420;2023-12-20T07:07:50;101363.75;;;18.75;64.17
72110;BME280;59983;52.010;5.420;2023-12-20T07:10:17;101368.06;;;18.76;64.32
72110;BME280;59983;52.010;5.420;2023-12-20T07:12:44;101362.56;;;18.76;64.60
72110;BME280;59983;52.010;5.420;2023-12-20T07:15:11;101362.16;;;18.74;64.61
72110;BME280;59983;52.010;5.420;2023-12-20T07:17:38;101368.06;;;18.76;64.79
72110;BME280;59983;52.010;5.420;2023-12-20T07:20:05;101362.97;;;18.74;65.15
72110;BME280;59983;52.010;5.420;2023-12-20T07:22:33;101362.56;;;18.76;65.21
72110;BME280;59983;52.010;5.420;2023-12-20T07:25:00;101361.78;;;18.75;65.27
72110;BME280;59983;52.010;5.420;2023-12-20T07:27:27;101361.00;;;18.75;65.23
72110;BME280;59983;52.010;5.420;2023-12-20T07:29:53;101361.38;;;18.73;65.23
72110;BME280;59983;52.010;5.420;2023-12-20T07:32:20;101354.72;;;18.74;65.23
72110;BME280;59983;52.010;5.420;2023-12-20T07:34:47;101356.69;;;18.74;65.44
72110;BME280;59983;52.010;5.420;2023-12-20T07:37:14;101357.47;;;18.74;65.20
72110;BME280;59983;52.010;5.420;2023-12-20T07:39:41;101347.66;;;18.73;65.40
72110;BME280;59983;52.010;5.420;2023-12-20T07:42:08;101349.56;;;18.73;65.66
72110;BME280;59983;52.010;5.420;2023-12-20T07:44:35;101342.50;;;18.72;65.60
72110;BME280;59983;52.010;5.420;2023-12-20T07:47:04;101342.16;;;18.73;65.45
72110;BME280;59983;52.010;5.420;2023-12-20T07:49:31;101355.88;;;18.73;66.00
72110;BME280;59983;52.010;5.420;2023-12-20T07:51:58;101346.84;;;18.73;65.66
72110;BME280;59983;52.010;5.420;2023-12-20T07:54:25;101357.47;;;18.74;65.71
72110;BME280;59983;52.010;5.420;2023-12-20T07:56:52;101370.03;;;18.75;65.77
72110;BME280;59983;52.010;5.420;2023-12-20T07:59:18;101371.19;;;18.74;65.79
72110;BME280;59983;52.010;5.420;2023-12-20T08:01:57;101373.94;;;18.74;65.81
72110;BME280;59983;52.010;5.420;2023-12-20T08:04:24;101374.31;;;18.73;65.83
72110;BME280;59983;52.010;5.420;2023-12-20T08:06:51;101380.63;;;18.73;65.71
72110;BME280;59983;52.010;5.420;2023-12-20T08:09:18;101380.63;;;18.73;65.89
72110;BME280;59983;52.010;5.420;2023-12-20T08:11:46;101376.28;;;18.72;65.92
72110;BME280;59983;52.010;5.420;2023-12-20T08:14:13;101378.25;;;18.72;65.81
72110;BME280;59983;52.010;5.420;2023-12-20T08:16:40;101391.63;;;18.73;65.96
72110;BME280;59983;52.010;5.420;2023-12-20T08:19:07;101379.81;;;18.73;66.02
72110;BME280;59983;52.010;5.420;2023-12-20T08:21:34;101378.25;;;18.72;65.93
72110;BME280;59983;52.010;5.420;2023-12-20T08:24:03;101365.28;;;18.72;65.56
72110;BME280;59983;52.010;5.420;2023-12-20T08:26:30;101366.84;;;18.70;65.40
72110;BME280;59983;52.010;5.420;2023-12-20T08:28:56;101369.22;;;18.71;65.95
72110;BME280;59983;52.010;5.420;2023-12-20T08:31:27;101361.38;;;18.73;66.37
72110;BME280;59983;52.010;5.420;2023-12-20T08:33:54;101355.47;;;18.71;66.14
72110;BME280;59983;52.010;5.420;2023-12-20T08:36:21;101364.50;;;18.72;65.91
72110;BME280;59983;52.010;5.420;2023-12-20T08:38:50;101368.81;;;18.73;66.08
72110;BME280;59983;52.010;5.420;2023-12-20T08:41:17;101359.78;;;18.72;65.73
72110;BME280;59983;52.010;5.420;2023-12-20T08:43:44;101359.78;;;18.72;65.67
72110;BME280;59983;52.010;5.420;2023-12-20T08:46:10;101368.81;;;18.73;65.72
72110;BME280;59983;52.010;5.420;2023-12-20T08:48:38;101363.31;;;18.73;65.66
72110;BME280;59983;52.010;5.420;2023-12-20T08:51:05;101367.66;;;18.74;66.23
72110;BME280;59983;52.010;5.420;2023-12-20T08:53:35;101364.13;;;18.73;66.01
72110;BME280;59983;52.010;5.420;2023-12-20T08:56:01;101361.00;;;18.75;65.98
72110;BME280;59983;52.010;5.420;2023-12-20T08:58:28;101363.34;;;18.76;65.95
72110;BME280;59983;52.010;5.420;2023-12-20T09:00:55;101360.59;;;18.76;65.97
72110;BME280;59983;52.010;5.420;2023-12-20T09:03:22;101361.78;;;18.79;65.86
72110;BME280;59983;52.010;5.420;2023-12-20T09:05:48;101359.03;;;18.79;65.88
72110;BME280;59983;52.010;5.420;2023-12-20T09:08:15;101361.38;;;18.80;66.03
72110;BME280;59983;52.010;5.420;2023-12-20T09:10:41;101357.47;;;18.81;65.90
72110;BME280;59983;52.010;5.420;2023-12-20T09:13:08;101365.34;;;18.83;66.07
72110;BME280;59983;52.010;5.420;2023-12-20T09:15:34;101357.88;;;18.83;66.23
72110;BME280;59983;52.010;5.420;2023-12-20T09:18:02;101364.16;;;18.84;66.25
72110;BME280;59983;52.010;5.420;2023-12-20T09:20:30;101365.72;;;18.85;65.99
72110;BME280;59983;52.010;5.420;2023-12-20T09:22:57;101357.09;;;18.86;65.98
72110;BME280;59983;52.010;5.420;2023-12-20T09:25:24;101352.38;;;18.87;65.65
72110;BME280;59983;52.010;5.420;2023-12-20T09:27:52;101359.44;;;18.88;65.92
72110;BME280;59983;52.010;5.420;2023-12-20T09:30:19;101356.31;;;18.89;65.76
72110;BME280;59983;52.010;5.420;2023-12-20T09:32:56;101355.53;;;18.92;65.89
72110;BME280;59983;52.010;5.420;2023-12-20T09:35:23;101357.91;;;18.94;66.06
72110;BME280;59983;52.010;5.420;2023-12-20T09:37:50;101352.78;;;18.96;65.72
72110;BME280;59983;52.010;5.420;2023-12-20T09:40:20;101348.88;;;18.97;65.95
72110;BME280;59983;52.010;5.420;2023-12-20T09:42:55;101359.47;;;18.99;65.72
72110;BME280;59983;52.010;5.420;2023-12-20T09:45:23;101346.94;;;19.01;65.99
72110;BME280;59983;52.010;5.420;2023-12-20T09:47:53;101363.03;;;19.03;65.73
72110;BME280;59983;52.010;5.420;2023-12-20T09:50:21;101356.75;;;19.02;65.85
72110;BME280;59983;52.010;5.420;2023-12-20T09:52:52;101368.53;;;19.06;65.96
72110;BME280;59983;52.010;5.420;2023-12-20T09:55:20;101360.28;;;19.06;65.84
72110;BME280;59983;52.010;5.420;2023-12-20T09:57:49;101362.25;;;19.09;65.58
72110;BME280;59983;52.010;5.420;2023-12-20T10:00:16;101361.09;;;19.10;65.85
72110;BME280;59983;52.010;5.420;2023-12-20T10:03:00;101355.97;;;19.12;65.79
72110;BME280;59983;52.010;5.420;2023-12-20T10:05:28;101368.53;;;19.13;65.67
72110;BME280;59983;52.010;5.420;2023-12-20T10:07:56;101370.91;;;19.15;66.17
72110;BME280;59983;52.010;5.420;2023-12-20T10:10:23;101371.69;;;19.15;66.61
72110;BME280;59983;52.010;5.420;2023-12-20T10:13:10;101371.69;;;19.15;66.35
72110;BME280;59983;52.010;5.420;2023-12-20T10:15:38;101379.53;;;19.17;66.80
72110;BME280;59983;52.010;5.420;2023-12-20T10:18:05;101382.72;;;19.19;67.05
72110;BME280;59983;52.010;5.420;2023-12-20T10:20:32;101385.84;;;19.17;67.09
72110;BME280;59983;52.010;5.420;2023-12-20T10:23:00;101391.75;;;19.19;67.16
72110;BME280;59983;52.010;5.420;2023-12-20T10:25:27;101381.91;;;19.22;66.96
72110;BME280;59983;52.010;5.420;2023-12-20T10:28:14;101380.72;;;19.23;66.44
72110;BME280;59983;52.010;5.420;2023-12-20T10:30:43;101370.50;;;19.23;66.18
72110;BME280;59983;52.010;5.420;2023-12-20T10:33:10;101369.72;;;19.23;65.85
72110;BME280;59983;52.010;5.420;2023-12-20T10:35:38;101371.31;;;19.20;65.89
72110;BME280;59983;52.010;5.420;2023-12-20T10:38:11;101367.38;;;19.21;65.68
72110;BME280;59983;52.010;5.420;2023-12-20T10:40:40;101363.44;;;19.19;65.88
72110;BME280;59983;52.010;5.420;2023-12-20T10:43:08;101360.28;;;19.17;65.77
72110;BME280;59983;52.010;5.420;2023-12-20T10:45:35;101360.28;;;19.17;65.63
72110;BME280;59983;52.010;5.420;2023-12-20T10:48:02;101364.22;;;19.16;65.46
72110;BME280;59983;52.010;5.420;2023-12-20T10:50:30;101354.78;;;19.13;65.51
72110;BME280;59983;52.010;5.420;2023-12-20T10:52:58;101355.56;;;19.14;65.48
72110;BME280;59983;52.010;5.420;2023-12-20T10:55:26;101353.59;;;19.14;65.49
72110;BME280;59983;52.010;5.420;2023-12-20T10:58:02;101345.34;;;19.14;65.50
72110;BME280;59983;52.010;5.420;2023-12-20T11:00:32;101341.03;;;19.13;65.52
72110;BME280;59983;52.010;5.420;2023-12-20T11:03:00;101348.50;;;19.13;65.37
72110;BME280;59983;52.010;5.420;2023-12-20T11:08:10;101354.41;;;19.11;65.60
72110;BME280;59983;52.010;5.420;2023-12-20T11:10:51;101345.75;;;19.09;65.59
72110;BME280;59983;52.010;5.420;2023-12-20T11:13:25;101341.44;;;19.08;65.63
72110;BME280;59983;52.010;5.420;2023-12-20T11:15:53;101337.09;;;19.07;65.67
72110;BME280;59983;52.010;5.420;2023-12-20T11:18:28;101329.25;;;19.06;65.42
72110;BME280;59983;52.010;5.420;2023-12-20T11:20:55;101326.88;;;19.04;65.50
72110;BME280;59983;52.010;5.420;2023-12-20T11:23:26;101323.75;;;19.06;65.56
72110;BME280;59983;52.010;5.420;2023-12-20T11:25:54;101328.47;;;19.05;65.38
72110;BME280;59983;52.010;5.420;2023-12-20T11:28:24;101335.13;;;19.04;65.33
72110;BME280;59983;52.010;5.420;2023-12-20T11:30:56;101319.81;;;19.03;65.51
72110;BME280;59983;52.010;5.420;2023-12-20T11:33:25;101319.03;;;19.03;65.44
72110;BME280;59983;52.010;5.420;2023-12-20T11:35:56;101315.50;;;19.02;65.52
72110;BME280;59983;52.010;5.420;2023-12-20T11:38:23;101308.44;;;19.01;65.51
72110;BME280;59983;52.010;5.420;2023-12-20T11:40:53;101304.47;;;18.99;65.49
72110;BME280;59983;52.010;5.420;2023-12-20T11:43:35;101304.47;;;18.99;65.45
72110;BME280;59983;52.010;5.420;2023-12-20T11:46:03;101313.50;;;18.99;65.43
72110;BME280;59983;52.010;5.420;2023-12-20T11:48:33;101300.16;;;18.98;65.35
72110;BME280;59983;52.010;5.420;2023-12-20T11:51:00;101300.94;;;18.98;65.50
72110;BME280;59983;52.010;5.420;2023-12-20T11:53:27;101291.13;;;18.97;65.41
72110;BME280;59983;52.010;5.420;2023-12-20T11:55:54;101296.63;;;18.97;65.38
72110;BME280;59983;52.010;5.420;2023-12-20T11:58:20;101289.16;;;18.94;65.38
72110;BME280;59983;52.010;5.420;2023-12-20T12:00:49;101279.75;;;18.95;65.36
72110;BME280;59983;52.010;5.420;2023-12-20T12:03:16;101274.25;;;18.95;65.50
72110;BME280;59983;52.010;5.420;2023-12-20T12:05:42;101273.47;;;18.94;65.43
72110;BME280;59983;52.010;5.420;2023-12-20T12:08:09;101282.50;;;18.95;65.35
72110;BME280;59983;52.010;5.420;2023-12-20T12:10:36;101275.03;;;18.95;65.43
72110;BME280;59983;52.010;5.420;2023-12-20T12:13:03;101271.88;;;18.93;65.52
72110;BME280;59983;52.010;5.420;2023-12-20T12:15:30;101277.78;;;18.95;65.45
72110;BME280;59983;52.010;5.420;2023-12-20T12:17:57;101283.28;;;18.95;65.35
72110;BME280;59983;52.010;5.420;2023-12-20T12:20:24;101278.97;;;18.94;65.21
72110;BME280;59983;52.010;5.420;2023-12-20T12:23:01;101290.34;;;18.93;65.42
72110;BME280;59983;52.010;5.420;2023-12-20T12:25:29;101293.09;;;18.93;65.44
72110;BME280;59983;52.010;5.420;2023-12-20T12:27:59;101288.78;;;18.92;65.42
72110;BME280;59983;52.010;5.420;2023-12-20T12:30:27;101297.81;;;18.92;65.68
72110;BME280;59983;52.010;5.420;2023-12-20T12:33:00;101287.59;;;18.93;65.62
72110;BME280;59983;52.010;5.420;2023-12-20T12:35:27;101290.75;;;18.95;65.73
72110;BME280;59983;52.010;5.420;2023-12-20T12:37:54;101272.28;;;18.95;65.90
72110;BME280;59983;52.010;5.420;2023-12-20T12:40:20;101274.22;;;18.99;65.77
72110;BME280;59983;52.010;5.420;2023-12-20T12:42:47;101266.78;;;19.03;65.91
72110;BME280;59983;52.010;5.420;2023-12-20T12:45:14;101264.03;;;19.06;65.85
72110;BME280;59983;52.010;5.420;2023-12-20T12:47:40;101259.34;;;19.10;65.74
72110;BME280;59983;52.010;5.420;2023-12-20T12:50:07;101252.63;;;19.15;65.90
72110;BME280;59983;52.010;5.420;2023-12-20T12:52:35;101245.97;;;19.19;65.78
72110;BME280;59983;52.010;5.420;2023-12-20T12:55:02;101255.78;;;19.24;65.75